sensor_id;sensor_type;location;lat;lon;timestamp;P1;durP1;ratioP1;P2;durP2;ratioP2
1601;SDS011;794;48.592;9.634;2022-10-04T00:02:17;18.97;;;4.37;;
1601;SDS011;794;48.592;9.634;2022-10-04T00:04:52;3.43;;;3.13;;
1601;SDS011;794;48.592;9.634;2022-10-04T00:07:25;8.30;;;3.57;;
1601;SDS011;794;48.592;9.634;2022-10-04T00:09:57;9.50;;;3.67;;
1601;SDS011;794;48.592;9.634;2022-10-04T00:12:27;17.70;;;5.33;;
1601;SDS011;794;48.592;9.634;2022-10-04T00:14:57;3.80;;;3.50;;
1601;SDS011;794;48.592;9.634;2022-10-04T00:17:28;3.60;;;3.30;;
1601;SDS011;794;48.592;9.634;2022-10-04T00:20:01;20.63;;;5.30;;
1601;SDS011;794;48.592;9.634;2022-10-04T00:22:29;2.93;;;2.70;;
1601;SDS011;794;48.592;9.634;2022-10-04T00:31:09;3.13;;;2.73;;
1601;SDS011;794;48.592;9.634;2022-10-04T00:33:48;7.33;;;4.00;;
1601;SDS011;794;48.592;9.634;2022-10-04T00:36:35;6.40;;;3.13;;
1601;SDS011;794;48.592;9.634;2022-10-04T00:39:13;3.57;;;2.63;;
1601;SDS011;794;48.592;9.634;2022-10-04T00:41:53;3.70;;;3.40;;
1601;SDS011;794;48.592;9.634;2022-10-04T00:44:37;10.33;;;4.10;;
1601;SDS011;794;48.592;9.634;2022-10-04T00:47:16;8.60;;;2.73;;
1601;SDS011;794;48.592;9.634;2022-10-04T00:49:50;4.40;;;2.97;;
1601;SDS011;794;48.592;9.634;2022-10-04T00:52:24;4.37;;;3.20;;
1601;SDS011;794;48.592;9.634;2022-10-04T00:54:54;4.07;;;3.37;;
1601;SDS011;794;48.592;9.634;2022-10-04T00:57:26;3.80;;;3.40;;
1601;SDS011;794;48.592;9.634;2022-10-04T00:59:57;5.00;;;3.23;;
1601;SDS011;794;48.592;9.634;2022-10-04T01:02:28;4.07;;;3.10;;
1601;SDS011;794;48.592;9.634;2022-10-04T01:04:59;4.70;;;3.70;;
1601;SDS011;794;48.592;9.634;2022-10-04T01:07:30;6.40;;;4.97;;
1601;SDS011;794;48.592;9.634;2022-10-04T01:10:03;6.43;;;4.43;;
1601;SDS011;794;48.592;9.634;2022-10-04T01:12:38;4.87;;;4.40;;
1601;SDS011;794;48.592;9.634;2022-10-04T01:15:11;4.43;;;4.03;;
1601;SDS011;794;48.592;9.634;2022-10-04T01:17:51;3.97;;;3.57;;
1601;SDS011;794;48.592;9.634;2022-10-04T01:20:33;6.03;;;4.17;;
1601;SDS011;794;48.592;9.634;2022-10-04T01:23:03;9.13;;;5.30;;
1601;SDS011;794;48.592;9.634;2022-10-04T01:25:41;5.17;;;4.50;;
1601;SDS011;794;48.592;9.634;2022-10-04T01:28:13;6.77;;;5.10;;
1601;SDS011;794;48.592;9.634;2022-10-04T01:30:40;4.83;;;4.33;;
1601;SDS011;794;48.592;9.634;2022-10-04T01:33:08;5.17;;;4.10;;
1601;SDS011;794;48.592;9.634;2022-10-04T01:35:36;5.20;;;3.87;;
1601;SDS011;794;48.592;9.634;2022-10-04T01:38:05;3.97;;;3.57;;
1601;SDS011;794;48.592;9.634;2022-10-04T01:40:32;6.10;;;3.97;;
1601;SDS011;794;48.592;9.634;2022-10-04T01:43:03;12.90;;;4.07;;
1601;SDS011;794;48.592;9.634;2022-10-04T01:45:34;5.23;;;3.77;;
1601;SDS011;794;48.592;9.634;2022-10-04T01:48:05;19.90;;;4.60;;
1601;SDS011;794;48.592;9.634;2022-10-04T01:50:38;3.27;;;2.90;;
1601;SDS011;794;48.592;9.634;2022-10-04T01:53:12;16.30;;;4.57;;
1601;SDS011;794;48.592;9.634;2022-10-04T01:55:44;7.33;;;4.13;;
1601;SDS011;794;48.592;9.634;2022-10-04T01:58:16;3.70;;;3.33;;
1601;SDS011;794;48.592;9.634;2022-10-04T02:00:47;5.70;;;3.10;;
1601;SDS011;794;48.592;9.634;2022-10-04T02:03:20;4.80;;;2.97;;
1601;SDS011;794;48.592;9.634;2022-10-04T02:05:53;4.20;;;3.70;;
1601;SDS011;794;48.592;9.634;2022-10-04T02:08:26;6.07;;;3.03;;
1601;SDS011;794;48.592;9.634;2022-10-04T02:10:56;4.60;;;3.43;;
1601;SDS011;794;48.592;9.634;2022-10-04T02:13:24;3.37;;;2.93;;
1601;SDS011;794;48.592;9.634;2022-10-04T02:15:54;2.60;;;2.40;;
1601;SDS011;794;48.592;9.634;2022-10-04T02:18:23;4.80;;;3.20;;
1601;SDS011;794;48.592;9.634;2022-10-04T02:20:52;3.43;;;2.17;;
1601;SDS011;794;48.592;9.634;2022-10-04T02:23:20;3.23;;;2.93;;
1601;SDS011;794;48.592;9.634;2022-10-04T02:25:50;5.60;;;2.90;;
1601;SDS011;794;48.592;9.634;2022-10-04T02:28:17;3.33;;;2.70;;
1601;SDS011;794;48.592;9.634;2022-10-04T02:30:46;8.53;;;2.60;;
1601;SDS011;794;48.592;9.634;2022-10-04T02:33:28;3.30;;;2.97;;
1601;SDS011;794;48.592;9.634;2022-10-04T02:35:55;3.03;;;2.70;;
1601;SDS011;794;48.592;9.634;2022-10-04T02:38:24;5.47;;;2.33;;
1601;SDS011;794;48.592;9.634;2022-10-04T02:40:57;2.70;;;2.50;;
1601;SDS011;794;48.592;9.634;2022-10-04T02:43:29;4.77;;;2.50;;
1601;SDS011;794;48.592;9.634;2022-10-04T02:46:01;4.03;;;3.10;;
1601;SDS011;794;48.592;9.634;2022-10-04T02:48:36;2.73;;;2.40;;
1601;SDS011;794;48.592;9.634;2022-10-04T02:51:19;5.53;;;2.70;;
1601;SDS011;794;48.592;9.634;2022-10-04T02:53:54;2.63;;;2.43;;
1601;SDS011;794;48.592;9.634;2022-10-04T02:56:28;2.70;;;2.40;;
1601;SDS011;794;48.592;9.634;2022-10-04T02:58:59;3.40;;;3.10;;
1601;SDS011;794;48.592;9.634;2022-10-04T03:01:34;3.77;;;2.90;;
1601;SDS011;794;48.592;9.634;2022-10-04T03:04:05;5.07;;;4.17;;
1601;SDS011;794;48.592;9.634;2022-10-04T03:06:37;4.57;;;3.00;;
1601;SDS011;794;48.592;9.634;2022-10-04T03:09:05;3.60;;;3.03;;
1601;SDS011;794;48.592;9.634;2022-10-04T03:11:34;4.07;;;3.07;;
1601;SDS011;794;48.592;9.634;2022-10-04T03:14:03;2.57;;;2.37;;
1601;SDS011;794;48.592;9.634;2022-10-04T03:16:35;5.07;;;2.90;;
1601;SDS011;794;48.592;9.634;2022-10-04T03:19:07;3.40;;;3.03;;
1601;SDS011;794;48.592;9.634;2022-10-04T03:21:36;3.33;;;2.53;;
1601;SDS011;794;48.592;9.634;2022-10-04T03:24:05;3.20;;;2.53;;
1601;SDS011;794;48.592;9.634;2022-10-04T03:26:34;4.73;;;2.70;;
1601;SDS011;794;48.592;9.634;2022-10-04T03:29:04;3.17;;;2.30;;
1601;SDS011;794;48.592;9.634;2022-10-04T03:31:35;3.83;;;2.60;;
1601;SDS011;794;48.592;9.634;2022-10-04T03:34:04;11.40;;;2.60;;
1601;SDS011;794;48.592;9.634;2022-10-04T03:36:32;2.60;;;2.40;;
1601;SDS011;794;48.592;9.634;2022-10-04T03:39:00;4.50;;;2.70;;
1601;SDS011;794;48.592;9.634;2022-10-04T03:41:37;3.67;;;2.70;;
1601;SDS011;794;48.592;9.634;2022-10-04T03:44:05;6.80;;;2.53;;
1601;SDS011;794;48.592;9.634;2022-10-04T03:46:38;3.97;;;3.53;;
1601;SDS011;794;48.592;9.634;2022-10-04T03:49:05;4.00;;;2.87;;
1601;SDS011;794;48.592;9.634;2022-10-04T03:51:33;4.10;;;2.77;;
1601;SDS011;794;48.592;9.634;2022-10-04T03:54:00;5.40;;;3.30;;
1601;SDS011;794;48.592;9.634;2022-10-04T03:56:31;3.70;;;3.27;;
1601;SDS011;794;48.592;9.634;2022-10-04T03:59:02;6.83;;;3.30;;
1601;SDS011;794;48.592;9.634;2022-10-04T04:01:35;3.73;;;3.20;;
1601;SDS011;794;48.592;9.634;2022-10-04T04:04:08;4.67;;;2.93;;
1601;SDS011;794;48.592;9.634;2022-10-04T04:06:44;3.30;;;2.30;;
1601;SDS011;794;48.592;9.634;2022-10-04T04:09:18;4.03;;;3.50;;
1601;SDS011;794;48.592;9.634;2022-10-04T04:11:48;8.90;;;4.60;;
1601;SDS011;794;48.592;9.634;2022-10-04T04:14:20;8.00;;;3.90;;
1601;SDS011;794;48.592;9.634;2022-10-04T04:16:50;4.47;;;3.00;;
1601;SDS011;794;48.592;9.634;2022-10-04T04:19:19;5.97;;;3.20;;
1601;SDS011;794;48.592;9.634;2022-10-04T04:21:50;3.93;;;3.20;;
1601;SDS011;794;48.592;9.634;2022-10-04T04:24:23;2.70;;;2.50;;
1601;SDS011;794;48.592;9.634;2022-10-04T04:26:56;4.97;;;3.27;;
1601;SDS011;794;48.592;9.634;2022-10-04T04:29:29;3.27;;;2.70;;
1601;SDS011;794;48.592;9.634;2022-10-04T04:31:59;2.90;;;2.70;;
1601;SDS011;794;48.592;9.634;2022-10-04T04:34:31;4.60;;;2.43;;
1601;SDS011;794;48.592;9.634;2022-10-04T04:37:00;2.60;;;2.07;;
1601;SDS011;794;48.592;9.634;2022-10-04T04:39:29;3.63;;;2.33;;
1601;SDS011;794;48.592;9.634;2022-10-04T04:42:01;3.33;;;2.40;;
1601;SDS011;794;48.592;9.634;2022-10-04T04:44:32;2.80;;;2.57;;
1601;SDS011;794;48.592;9.634;2022-10-04T04:47:00;4.03;;;2.70;;
1601;SDS011;794;48.592;9.634;2022-10-04T04:49:32;2.10;;;2.00;;
1601;SDS011;794;48.592;9.634;2022-10-04T04:52:02;5.80;;;2.87;;
1601;SDS011;794;48.592;9.634;2022-10-04T04:54:29;4.30;;;2.50;;
1601;SDS011;794;48.592;9.634;2022-10-04T04:56:56;4.23;;;3.00;;
1601;SDS011;794;48.592;9.634;2022-10-04T04:59:23;4.80;;;2.77;;
1601;SDS011;794;48.592;9.634;2022-10-04T05:01:54;2.90;;;2.57;;
1601;SDS011;794;48.592;9.634;2022-10-04T05:04:21;10.27;;;5.20;;
1601;SDS011;794;48.592;9.634;2022-10-04T05:06:58;6.30;;;3.60;;
1601;SDS011;794;48.592;9.634;2022-10-04T05:09:27;5.33;;;3.20;;
1601;SDS011;794;48.592;9.634;2022-10-04T05:11:56;6.70;;;4.40;;
1601;SDS011;794;48.592;9.634;2022-10-04T05:14:31;5.17;;;4.67;;
1601;SDS011;794;48.592;9.634;2022-10-04T05:17:00;6.43;;;5.87;;
1601;SDS011;794;48.592;9.634;2022-10-04T05:19:28;6.40;;;4.17;;
1601;SDS011;794;48.592;9.634;2022-10-04T05:21:57;4.90;;;4.03;;
1601;SDS011;794;48.592;9.634;2022-10-04T05:24:26;5.63;;;3.87;;
1601;SDS011;794;48.592;9.634;2022-10-04T05:26:56;4.33;;;2.90;;
1601;SDS011;794;48.592;9.634;2022-10-04T05:29:27;6.37;;;3.37;;
1601;SDS011;794;48.592;9.634;2022-10-04T05:32:02;3.57;;;3.27;;
1601;SDS011;794;48.592;9.634;2022-10-04T05:34:37;4.00;;;3.30;;
1601;SDS011;794;48.592;9.634;2022-10-04T05:37:21;3.97;;;3.60;;
1601;SDS011;794;48.592;9.634;2022-10-04T05:40:02;4.10;;;2.60;;
1601;SDS011;794;48.592;9.634;2022-10-04T05:42:36;3.60;;;2.80;;
1601;SDS011;794;48.592;9.634;2022-10-04T05:45:13;5.20;;;3.13;;
1601;SDS011;794;48.592;9.634;2022-10-04T05:47:44;4.37;;;3.10;;
1601;SDS011;794;48.592;9.634;2022-10-04T05:50:14;3.80;;;3.00;;
1601;SDS011;794;48.592;9.634;2022-10-04T05:52:43;5.40;;;3.10;;
1601;SDS011;794;48.592;9.634;2022-10-04T05:55:26;7.90;;;3.90;;
1601;SDS011;794;48.592;9.634;2022-10-04T06:01:00;6.00;;;3.50;;
1601;SDS011;794;48.592;9.634;2022-10-04T06:03:53;7.63;;;4.13;;
1601;SDS011;794;48.592;9.634;2022-10-04T06:06:46;11.33;;;4.70;;
1601;SDS011;794;48.592;9.634;2022-10-04T06:09:34;6.40;;;3.63;;
1601;SDS011;794;48.592;9.634;2022-10-04T06:12:13;7.93;;;5.00;;
1601;SDS011;794;48.592;9.634;2022-10-04T06:14:57;6.20;;;5.60;;
1601;SDS011;794;48.592;9.634;2022-10-04T06:17:40;11.10;;;6.40;;
1601;SDS011;794;48.592;9.634;2022-10-04T06:20:20;8.27;;;4.70;;
1601;SDS011;794;48.592;9.634;2022-10-04T06:23:11;8.77;;;5.93;;
1601;SDS011;794;48.592;9.634;2022-10-04T06:25:42;7.90;;;5.20;;
1601;SDS011;794;48.592;9.634;2022-10-04T06:28:14;5.50;;;5.00;;
1601;SDS011;794;48.592;9.634;2022-10-04T06:30:49;5.10;;;3.60;;
1601;SDS011;794;48.592;9.634;2022-10-04T06:33:28;7.37;;;5.10;;
1601;SDS011;794;48.592;9.634;2022-10-04T06:39:30;9.57;;;4.77;;
1601;SDS011;794;48.592;9.634;2022-10-04T06:42:12;4.73;;;4.20;;
1601;SDS011;794;48.592;9.634;2022-10-04T06:45:10;9.67;;;4.30;;
1601;SDS011;794;48.592;9.634;2022-10-04T06:50:52;6.90;;;5.07;;
1601;SDS011;794;48.592;9.634;2022-10-04T06:53:31;6.23;;;4.50;;
1601;SDS011;794;48.592;9.634;2022-10-04T06:56:18;6.77;;;4.33;;
1601;SDS011;794;48.592;9.634;2022-10-04T06:59:15;5.80;;;3.80;;
1601;SDS011;794;48.592;9.634;2022-10-04T07:01:59;7.33;;;5.17;;
1601;SDS011;794;48.592;9.634;2022-10-04T07:04:30;9.43;;;5.90;;
1601;SDS011;794;48.592;9.634;2022-10-04T07:07:06;6.83;;;4.47;;
1601;SDS011;794;48.592;9.634;2022-10-04T07:10:01;7.77;;;5.37;;
1601;SDS011;794;48.592;9.634;2022-10-04T07:13:02;6.77;;;5.03;;
1601;SDS011;794;48.592;9.634;2022-10-04T07:15:41;9.50;;;6.27;;
1601;SDS011;794;48.592;9.634;2022-10-04T07:18:14;9.40;;;5.33;;
1601;SDS011;794;48.592;9.634;2022-10-04T07:21:01;7.23;;;4.00;;
1601;SDS011;794;48.592;9.634;2022-10-04T07:23:35;7.20;;;4.80;;
1601;SDS011;794;48.592;9.634;2022-10-04T07:26:15;8.77;;;4.53;;
1601;SDS011;794;48.592;9.634;2022-10-04T07:28:50;8.27;;;4.37;;
1601;SDS011;794;48.592;9.634;2022-10-04T07:31:39;2.97;;;2.70;;
1601;SDS011;794;48.592;9.634;2022-10-04T07:34:08;5.43;;;2.83;;
1601;SDS011;794;48.592;9.634;2022-10-04T07:36:42;4.20;;;2.73;;
1601;SDS011;794;48.592;9.634;2022-10-04T07:39:13;4.70;;;2.50;;
1601;SDS011;794;48.592;9.634;2022-10-04T07:41:46;5.50;;;3.27;;
1601;SDS011;794;48.592;9.634;2022-10-04T07:44:19;3.40;;;3.07;;
1601;SDS011;794;48.592;9.634;2022-10-04T07:46:59;4.00;;;3.43;;
1601;SDS011;794;48.592;9.634;2022-10-04T07:49:35;3.27;;;2.90;;
1601;SDS011;794;48.592;9.634;2022-10-04T07:55:16;3.77;;;3.00;;
1601;SDS011;794;48.592;9.634;2022-10-04T07:57:57;4.00;;;2.67;;
1601;SDS011;794;48.592;9.634;2022-10-04T08:00:36;5.47;;;3.53;;
1601;SDS011;794;48.592;9.634;2022-10-04T08:03:26;5.80;;;3.80;;
1601;SDS011;794;48.592;9.634;2022-10-04T08:06:07;4.50;;;2.87;;
1601;SDS011;794;48.592;9.634;2022-10-04T08:11:36;3.30;;;3.00;;
1601;SDS011;794;48.592;9.634;2022-10-04T08:14:16;8.30;;;3.43;;
1601;SDS011;794;48.592;9.634;2022-10-04T08:16:53;5.27;;;2.50;;
1601;SDS011;794;48.592;9.634;2022-10-04T08:19:36;10.23;;;3.40;;
1601;SDS011;794;48.592;9.634;2022-10-04T08:22:15;3.60;;;2.40;;
1601;SDS011;794;48.592;9.634;2022-10-04T08:24:50;3.43;;;2.87;;
1601;SDS011;794;48.592;9.634;2022-10-04T08:27:30;5.40;;;2.63;;
1601;SDS011;794;48.592;9.634;2022-10-04T08:30:29;7.43;;;2.90;;
1601;SDS011;794;48.592;9.634;2022-10-04T08:33:05;9.50;;;2.33;;
1601;SDS011;794;48.592;9.634;2022-10-04T08:35:41;2.93;;;2.30;;
1601;SDS011;794;48.592;9.634;2022-10-04T08:44:19;3.33;;;2.70;;
1601;SDS011;794;48.592;9.634;2022-10-04T08:47:23;5.80;;;2.57;;
1601;SDS011;794;48.592;9.634;2022-10-04T08:50:33;2.70;;;2.27;;
1601;SDS011;794;48.592;9.634;2022-10-04T08:53:34;6.83;;;2.67;;
1601;SDS011;794;48.592;9.634;2022-10-04T08:56:38;6.90;;;2.17;;
1601;SDS011;794;48.592;9.634;2022-10-04T08:59:31;5.37;;;2.27;;
1601;SDS011;794;48.592;9.634;2022-10-04T09:05:35;3.83;;;2.53;;
1601;SDS011;794;48.592;9.634;2022-10-04T09:08:21;6.67;;;2.30;;
1601;SDS011;794;48.592;9.634;2022-10-04T09:11:21;5.40;;;2.83;;
1601;SDS011;794;48.592;9.634;2022-10-04T09:14:25;8.70;;;2.90;;
1601;SDS011;794;48.592;9.634;2022-10-04T09:17:20;4.13;;;2.80;;
1601;SDS011;794;48.592;9.634;2022-10-04T09:19:54;7.37;;;2.33;;
1601;SDS011;794;48.592;9.634;2022-10-04T09:22:34;3.60;;;3.10;;
1601;SDS011;794;48.592;9.634;2022-10-04T09:25:23;3.43;;;2.50;;
1601;SDS011;794;48.592;9.634;2022-10-04T09:28:11;3.67;;;2.30;;
1601;SDS011;794;48.592;9.634;2022-10-04T09:31:05;6.23;;;2.57;;
1601;SDS011;794;48.592;9.634;2022-10-04T09:33:50;5.73;;;3.10;;
1601;SDS011;794;48.592;9.634;2022-10-04T09:36:36;3.43;;;2.70;;
1601;SDS011;794;48.592;9.634;2022-10-04T09:39:23;5.17;;;2.60;;
1601;SDS011;794;48.592;9.634;2022-10-04T09:42:14;6.33;;;3.00;;
1601;SDS011;794;48.592;9.634;2022-10-04T09:45:13;4.90;;;2.77;;
1601;SDS011;794;48.592;9.634;2022-10-04T09:48:06;5.20;;;2.73;;
1601;SDS011;794;48.592;9.634;2022-10-04T09:53:57;4.53;;;2.67;;
1601;SDS011;794;48.592;9.634;2022-10-04T10:08:52;4.50;;;2.83;;
1601;SDS011;794;48.592;9.634;2022-10-04T10:11:38;8.50;;;2.37;;
1601;SDS011;794;48.592;9.634;2022-10-04T10:17:27;3.50;;;2.20;;
1601;SDS011;794;48.592;9.634;2022-10-04T10:20:03;3.07;;;2.77;;
1601;SDS011;794;48.592;9.634;2022-10-04T10:23:02;4.77;;;2.60;;
1601;SDS011;794;48.592;9.634;2022-10-04T10:25:49;4.90;;;3.13;;
1601;SDS011;794;48.592;9.634;2022-10-04T10:28:40;4.80;;;2.83;;
1601;SDS011;794;48.592;9.634;2022-10-04T10:31:33;5.83;;;2.60;;
1601;SDS011;794;48.592;9.634;2022-10-04T10:34:21;4.17;;;2.67;;
1601;SDS011;794;48.592;9.634;2022-10-04T10:37:05;6.10;;;2.50;;
1601;SDS011;794;48.592;9.634;2022-10-04T10:45:54;4.93;;;2.47;;
1601;SDS011;794;48.592;9.634;2022-10-04T10:48:34;3.03;;;2.60;;
1601;SDS011;794;48.592;9.634;2022-10-04T10:51:29;5.33;;;3.13;;
1601;SDS011;794;48.592;9.634;2022-10-04T10:57:22;2.70;;;2.50;;
1601;SDS011;794;48.592;9.634;2022-10-04T11:00:12;5.33;;;2.70;;
1601;SDS011;794;48.592;9.634;2022-10-04T11:02:58;4.73;;;2.80;;
1601;SDS011;794;48.592;9.634;2022-10-04T11:08:48;2.83;;;2.53;;
1601;SDS011;794;48.592;9.634;2022-10-04T11:11:53;3.43;;;2.53;;
1601;SDS011;794;48.592;9.634;2022-10-04T11:14:51;4.97;;;2.77;;
1601;SDS011;794;48.592;9.634;2022-10-04T11:17:41;4.93;;;2.97;;
1601;SDS011;794;48.592;9.634;2022-10-04T11:20:36;5.70;;;2.70;;
1601;SDS011;794;48.592;9.634;2022-10-04T11:29:26;2.60;;;2.30;;
1601;SDS011;794;48.592;9.634;2022-10-04T11:35:43;4.03;;;2.40;;
1601;SDS011;794;48.592;9.634;2022-10-04T11:38:32;6.50;;;2.73;;
1601;SDS011;794;48.592;9.634;2022-10-04T11:41:25;4.70;;;2.00;;
1601;SDS011;794;48.592;9.634;2022-10-04T11:44:20;3.80;;;2.80;;
1601;SDS011;794;48.592;9.634;2022-10-04T11:47:02;4.13;;;2.33;;
1601;SDS011;794;48.592;9.634;2022-10-04T11:49:43;3.80;;;2.33;;
1601;SDS011;794;48.592;9.634;2022-10-04T11:58:34;4.30;;;2.23;;
1601;SDS011;794;48.592;9.634;2022-10-04T12:01:26;4.83;;;2.90;;
1601;SDS011;794;48.592;9.634;2022-10-04T12:04:15;3.30;;;2.13;;
1601;SDS011;794;48.592;9.634;2022-10-04T12:07:00;5.13;;;2.43;;
1601;SDS011;794;48.592;9.634;2022-10-04T12:09:52;3.03;;;2.10;;
1601;SDS011;794;48.592;9.634;2022-10-04T12:12:32;3.27;;;2.27;;
1601;SDS011;794;48.592;9.634;2022-10-04T12:18:25;2.67;;;2.47;;
1601;SDS011;794;48.592;9.634;2022-10-04T12:24:40;4.33;;;2.47;;
1601;SDS011;794;48.592;9.634;2022-10-04T12:30:54;5.03;;;1.97;;
1601;SDS011;794;48.592;9.634;2022-10-04T12:33:33;2.20;;;2.00;;
1601;SDS011;794;48.592;9.634;2022-10-04T12:36:11;2.23;;;2.03;;
1601;SDS011;794;48.592;9.634;2022-10-04T12:38:55;2.30;;;2.00;;
1601;SDS011;794;48.592;9.634;2022-10-04T12:41:40;2.67;;;1.67;;
1601;SDS011;794;48.592;9.634;2022-10-04T12:44:20;2.67;;;2.47;;
1601;SDS011;794;48.592;9.634;2022-10-04T12:50:06;6.50;;;2.00;;
1601;SDS011;794;48.592;9.634;2022-10-04T12:52:43;3.40;;;2.20;;
1601;SDS011;794;48.592;9.634;2022-10-04T12:55:23;2.27;;;1.97;;
1601;SDS011;794;48.592;9.634;2022-10-04T12:58:15;2.10;;;1.90;;
1601;SDS011;794;48.592;9.634;2022-10-04T13:00:52;5.73;;;1.90;;
1601;SDS011;794;48.592;9.634;2022-10-04T13:03:34;4.53;;;1.87;;
1601;SDS011;794;48.592;9.634;2022-10-04T13:06:09;3.30;;;2.10;;
1601;SDS011;794;48.592;9.634;2022-10-04T13:08:55;4.20;;;2.30;;
1601;SDS011;794;48.592;9.634;2022-10-04T13:14:36;8.30;;;1.90;;
1601;SDS011;794;48.592;9.634;2022-10-04T13:17:16;5.10;;;2.50;;
1601;SDS011;794;48.592;9.634;2022-10-04T13:19:52;2.47;;;2.27;;
1601;SDS011;794;48.592;9.634;2022-10-04T13:22:31;2.10;;;2.00;;
1601;SDS011;794;48.592;9.634;2022-10-04T13:25:19;2.80;;;1.73;;
1601;SDS011;794;48.592;9.634;2022-10-04T13:27:57;2.00;;;1.57;;
1601;SDS011;794;48.592;9.634;2022-10-04T13:30:31;2.27;;;1.93;;
1601;SDS011;794;48.592;9.634;2022-10-04T13:33:10;2.27;;;2.07;;
1601;SDS011;794;48.592;9.634;2022-10-04T13:35:51;2.20;;;2.00;;
1601;SDS011;794;48.592;9.634;2022-10-04T13:38:33;4.80;;;1.90;;
1601;SDS011;794;48.592;9.634;2022-10-04T13:41:19;2.53;;;2.00;;
1601;SDS011;794;48.592;9.634;2022-10-04T13:43:59;2.40;;;1.70;;
1601;SDS011;794;48.592;9.634;2022-10-04T13:46:46;2.20;;;2.00;;
1601;SDS011;794;48.592;9.634;2022-10-04T13:49:26;1.77;;;1.50;;
1601;SDS011;794;48.592;9.634;2022-10-04T13:52:07;4.33;;;2.10;;
1601;SDS011;794;48.592;9.634;2022-10-04T13:55:16;1.90;;;1.80;;
1601;SDS011;794;48.592;9.634;2022-10-04T13:58:10;5.00;;;2.07;;
1601;SDS011;794;48.592;9.634;2022-10-04T14:00:54;1.63;;;1.40;;
1601;SDS011;794;48.592;9.634;2022-10-04T14:03:46;3.60;;;2.33;;
1601;SDS011;794;48.592;9.634;2022-10-04T14:06:34;4.37;;;3.20;;
1601;SDS011;794;48.592;9.634;2022-10-04T14:09:25;1.87;;;1.50;;
1601;SDS011;794;48.592;9.634;2022-10-04T14:12:29;3.90;;;2.27;;
1601;SDS011;794;48.592;9.634;2022-10-04T14:15:32;2.00;;;1.57;;
1601;SDS011;794;48.592;9.634;2022-10-04T14:21:23;2.90;;;1.93;;
1601;SDS011;794;48.592;9.634;2022-10-04T14:24:13;2.10;;;1.77;;
1601;SDS011;794;48.592;9.634;2022-10-04T14:27:11;3.37;;;2.30;;
1601;SDS011;794;48.592;9.634;2022-10-04T14:30:18;3.63;;;2.13;;
1601;SDS011;794;48.592;9.634;2022-10-04T14:32:57;5.20;;;1.77;;
1601;SDS011;794;48.592;9.634;2022-10-04T14:35:46;2.47;;;1.93;;
1601;SDS011;794;48.592;9.634;2022-10-04T14:38:41;2.23;;;2.00;;
1601;SDS011;794;48.592;9.634;2022-10-04T14:44:35;2.27;;;2.07;;
1601;SDS011;794;48.592;9.634;2022-10-04T14:50:26;2.20;;;1.53;;
1601;SDS011;794;48.592;9.634;2022-10-04T14:53:04;2.17;;;1.97;;
1601;SDS011;794;48.592;9.634;2022-10-04T14:55:54;5.40;;;1.87;;
1601;SDS011;794;48.592;9.634;2022-10-04T14:58:52;4.20;;;1.67;;
1601;SDS011;794;48.592;9.634;2022-10-04T15:01:29;1.67;;;1.57;;
1601;SDS011;794;48.592;9.634;2022-10-04T15:04:08;2.37;;;1.70;;
1601;SDS011;794;48.592;9.634;2022-10-04T15:06:59;6.63;;;1.97;;
1601;SDS011;794;48.592;9.634;2022-10-04T15:09:46;2.83;;;1.77;;
1601;SDS011;794;48.592;9.634;2022-10-04T15:12:23;3.17;;;1.83;;
1601;SDS011;794;48.592;9.634;2022-10-04T15:15:14;3.97;;;1.93;;
1601;SDS011;794;48.592;9.634;2022-10-04T15:17:55;4.63;;;2.20;;
1601;SDS011;794;48.592;9.634;2022-10-04T15:20:27;2.73;;;1.60;;
1601;SDS011;794;48.592;9.634;2022-10-04T15:23:13;2.23;;;1.93;;
1601;SDS011;794;48.592;9.634;2022-10-04T15:25:44;2.00;;;1.80;;
1601;SDS011;794;48.592;9.634;2022-10-04T15:31:25;3.87;;;1.67;;
1601;SDS011;794;48.592;9.634;2022-10-04T15:34:01;2.23;;;2.03;;
1601;SDS011;794;48.592;9.634;2022-10-04T15:36:38;2.17;;;1.60;;
1601;SDS011;794;48.592;9.634;2022-10-04T15:42:22;4.13;;;2.50;;
1601;SDS011;794;48.592;9.634;2022-10-04T15:45:00;3.90;;;1.70;;
1601;SDS011;794;48.592;9.634;2022-10-04T15:48:00;7.17;;;3.13;;
1601;SDS011;794;48.592;9.634;2022-10-04T15:50:36;2.70;;;2.00;;
1601;SDS011;794;48.592;9.634;2022-10-04T15:53:24;10.90;;;1.80;;
1601;SDS011;794;48.592;9.634;2022-10-04T15:56:12;2.10;;;1.90;;
1601;SDS011;794;48.592;9.634;2022-10-04T16:01:56;5.50;;;2.10;;
1601;SDS011;794;48.592;9.634;2022-10-04T16:04:54;3.60;;;2.17;;
1601;SDS011;794;48.592;9.634;2022-10-04T16:07:31;2.60;;;2.40;;
1601;SDS011;794;48.592;9.634;2022-10-04T16:10:11;2.37;;;2.17;;
1601;SDS011;794;48.592;9.634;2022-10-04T16:15:47;7.53;;;2.77;;
1601;SDS011;794;48.592;9.634;2022-10-04T16:19:02;3.20;;;2.80;;
1601;SDS011;794;48.592;9.634;2022-10-04T16:21:42;3.43;;;2.40;;
1601;SDS011;794;48.592;9.634;2022-10-04T16:24:26;4.97;;;2.43;;
1601;SDS011;794;48.592;9.634;2022-10-04T16:27:13;4.67;;;2.67;;
1601;SDS011;794;48.592;9.634;2022-10-04T16:33:04;3.20;;;3.00;;
1601;SDS011;794;48.592;9.634;2022-10-04T16:35:48;2.90;;;2.70;;
1601;SDS011;794;48.592;9.634;2022-10-04T16:38:28;2.57;;;2.37;;
1601;SDS011;794;48.592;9.634;2022-10-04T16:41:08;4.70;;;2.50;;
1601;SDS011;794;48.592;9.634;2022-10-04T16:43:40;3.20;;;2.73;;
1601;SDS011;794;48.592;9.634;2022-10-04T16:46:18;2.40;;;2.13;;
1601;SDS011;794;48.592;9.634;2022-10-04T16:48:55;6.90;;;3.50;;
1601;SDS011;794;48.592;9.634;2022-10-04T16:51:32;2.93;;;2.73;;
1601;SDS011;794;48.592;9.634;2022-10-04T16:54:08;3.90;;;3.60;;
1601;SDS011;794;48.592;9.634;2022-10-04T16:57:09;2.60;;;2.33;;
1601;SDS011;794;48.592;9.634;2022-10-04T16:59:42;2.93;;;2.73;;
1601;SDS011;794;48.592;9.634;2022-10-04T17:02:17;4.90;;;2.90;;
1601;SDS011;794;48.592;9.634;2022-10-04T17:05:17;3.80;;;3.00;;
1601;SDS011;794;48.592;9.634;2022-10-04T17:08:19;7.83;;;3.07;;
1601;SDS011;794;48.592;9.634;2022-10-04T17:14:05;4.87;;;2.80;;
1601;SDS011;794;48.592;9.634;2022-10-04T17:16:47;2.97;;;2.73;;
1601;SDS011;794;48.592;9.634;2022-10-04T17:19:24;2.90;;;2.70;;
1601;SDS011;794;48.592;9.634;2022-10-04T17:21:57;2.63;;;2.40;;
1601;SDS011;794;48.592;9.634;2022-10-04T17:24:48;5.60;;;4.30;;
1601;SDS011;794;48.592;9.634;2022-10-04T17:27:26;7.20;;;6.50;;
1601;SDS011;794;48.592;9.634;2022-10-04T17:30:14;10.03;;;4.90;;
1601;SDS011;794;48.592;9.634;2022-10-04T17:32:46;4.00;;;3.70;;
1601;SDS011;794;48.592;9.634;2022-10-04T17:38:33;4.33;;;3.93;;
1601;SDS011;794;48.592;9.634;2022-10-04T17:41:11;4.63;;;4.23;;
1601;SDS011;794;48.592;9.634;2022-10-04T17:43:43;10.33;;;4.47;;
1601;SDS011;794;48.592;9.634;2022-10-04T17:46:32;3.90;;;3.60;;
1601;SDS011;794;48.592;9.634;2022-10-04T17:49:09;4.20;;;3.90;;
1601;SDS011;794;48.592;9.634;2022-10-04T17:52:03;3.23;;;3.03;;
1601;SDS011;794;48.592;9.634;2022-10-04T17:54:54;3.17;;;2.77;;
1601;SDS011;794;48.592;9.634;2022-10-04T17:57:42;3.67;;;2.33;;
1601;SDS011;794;48.592;9.634;2022-10-04T18:00:14;2.90;;;2.40;;
1601;SDS011;794;48.592;9.634;2022-10-04T18:02:44;4.23;;;3.90;;
1601;SDS011;794;48.592;9.634;2022-10-04T18:05:26;4.13;;;3.73;;
1601;SDS011;794;48.592;9.634;2022-10-04T18:07:56;6.30;;;5.10;;
1601;SDS011;794;48.592;9.634;2022-10-04T18:10:26;7.87;;;5.47;;
1601;SDS011;794;48.592;9.634;2022-10-04T18:12:59;5.70;;;4.37;;
1601;SDS011;794;48.592;9.634;2022-10-04T18:15:31;4.27;;;3.87;;
1601;SDS011;794;48.592;9.634;2022-10-04T18:18:07;8.57;;;5.30;;
1601;SDS011;794;48.592;9.634;2022-10-04T18:20:56;10.43;;;8.13;;
1601;SDS011;794;48.592;9.634;2022-10-04T18:23:32;7.50;;;6.63;;
1601;SDS011;794;48.592;9.634;2022-10-04T18:26:04;5.90;;;5.30;;
1601;SDS011;794;48.592;9.634;2022-10-04T18:28:37;7.23;;;6.40;;
1601;SDS011;794;48.592;9.634;2022-10-04T18:31:18;6.10;;;5.40;;
1601;SDS011;794;48.592;9.634;2022-10-04T18:33:53;5.87;;;5.37;;
1601;SDS011;794;48.592;9.634;2022-10-04T18:36:23;8.10;;;6.23;;
1601;SDS011;794;48.592;9.634;2022-10-04T18:38:59;7.33;;;5.60;;
1601;SDS011;794;48.592;9.634;2022-10-04T18:41:28;5.90;;;4.83;;
1601;SDS011;794;48.592;9.634;2022-10-04T18:44:13;4.10;;;3.70;;
1601;SDS011;794;48.592;9.634;2022-10-04T18:46:42;8.13;;;4.17;;
1601;SDS011;794;48.592;9.634;2022-10-04T18:49:15;5.63;;;4.23;;
1601;SDS011;794;48.592;9.634;2022-10-04T18:51:50;5.27;;;4.00;;